Pagrindinis puslapis
METAR-TAF:

METAR-TAF

Oro uostai :

Šenjangas, Kinija

platuma: 41-48N, ilguma: 123-24E, Aukštis: 35 m

Dabartinis oras

Ataskaita buvo paskelbta 31 minutes, ne 18:30 UTC
Vėjas 2 kt iš Pietų
Temperatūra -18°C
Drėgmė 77%
Slėgis 1027 hPa
Matomumas 10 km arba daugiau
nėra debesų žemiau 1500 m ir nėra kamuolinių lietaus debesų

METAR: ZYTX 171830Z 19001MPS CAVOK M18/M21 Q1027 NOSIG

Laikas: 03:01 (19:01 UTC)

Prognozė

Ataskaita buvo paskelbta 5 valandos ir 50 minutes, ne 13:11 UTC
Prognozė galioja nuo 17 metu 18 UTC su 18 metu 18 UTC
Vėjas 8 kt iš Pietų/Pietryčių
Matomumas: 6000 m

TAF: ZYTX 171311Z 1718/1818 15004MPS 6000 NSC TX01/1806Z TNM17/1721Z

Orai ataskaitas ir orų prognozės (METAR, TAF).

turimą stotys yra geltonos ir raudonos taškus žemėlapyje.

Perkelti pele per norėdami pamatyti stoties vardą.

Tada spustelėkite, norėdami matyti oro stebėjimo ir prognozės.

Norėdami pakeisti žemėlapį: spustelėkite ant žalios mygtukų su juodo kryžiaus žemyn,; žalią mygtuką su brūkšneliu, jei norite nutolinti; arba žalių rodyklių gretimoms žemėlapius.


METAR-TAF: